createdAt,value
2019-04-13T00:02:11.378Z,12.13
2019-04-13T00:04:53.259Z,11.50
2019-04-13T00:07:21.298Z,11.90
2019-04-13T00:09:50.201Z,12.50
2019-04-13T00:12:30.428Z,12.43
2019-04-13T00:14:57.664Z,12.03
2019-04-13T00:17:24.740Z,11.60
2019-04-13T00:19:51.840Z,12.57
2019-04-13T00:22:18.991Z,11.70
2019-04-13T00:24:46.268Z,11.20
2019-04-13T00:27:13.638Z,12.47
2019-04-13T00:29:40.691Z,12.57
2019-04-13T00:32:07.746Z,13.07
2019-04-13T00:34:41.275Z,13.00
2019-04-13T00:37:03.821Z,12.87
2019-04-13T00:39:30.967Z,11.67
2019-04-13T00:41:58.250Z,11.63
2019-04-13T00:44:37.534Z,12.63
2019-04-13T00:47:04.756Z,11.83
2019-04-13T00:49:31.818Z,11.70
2019-04-13T00:51:58.889Z,12.10
2019-04-13T00:54:26.179Z,11.17
2019-04-13T00:56:53.260Z,12.07
2019-04-13T00:59:20.362Z,10.80
2019-04-13T01:01:47.423Z,12.00
2019-04-13T01:04:14.506Z,12.23
2019-04-13T01:06:41.604Z,13.90
2019-04-13T01:09:08.717Z,13.30
2019-04-13T01:11:36.014Z,12.30
2019-04-13T01:14:03.198Z,12.60
2019-04-13T01:16:30.269Z,12.47
2019-04-13T01:18:57.337Z,13.33
2019-04-13T01:21:24.409Z,12.83
2019-04-13T01:23:51.509Z,12.33
2019-04-13T01:26:18.941Z,12.73
2019-04-13T01:28:45.989Z,15.03
2019-04-13T01:31:13.329Z,13.87
2019-04-13T01:33:40.726Z,13.50
2019-04-13T01:36:07.772Z,13.50
2019-04-13T01:38:35.089Z,13.53
2019-04-13T01:41:02.633Z,12.83
2019-04-13T01:43:29.981Z,12.27
2019-04-13T01:45:57.319Z,14.37
2019-04-13T01:48:24.404Z,13.37
2019-04-13T01:50:51.446Z,13.60
2019-04-13T01:53:18.493Z,13.50
2019-04-13T01:55:45.632Z,14.53
2019-04-13T01:58:12.674Z,12.97
2019-04-13T02:01:01.190Z,12.83
2019-04-13T02:03:28.787Z,13.50
2019-04-13T02:05:58.908Z,13.30
2019-04-13T02:08:57.701Z,13.20
2019-04-13T02:11:28.029Z,13.27
2019-04-13T02:13:55.096Z,14.37
2019-04-13T02:16:22.185Z,13.50
2019-04-13T02:18:49.235Z,11.77
2019-04-13T02:21:16.340Z,12.60
2019-04-13T02:23:43.454Z,12.57
2019-04-13T02:26:10.534Z,11.53
2019-04-13T02:28:37.626Z,13.03
2019-04-13T02:31:04.714Z,13.03
2019-04-13T02:33:31.832Z,13.67
2019-04-13T02:35:58.898Z,12.60
2019-04-13T02:38:25.998Z,12.93
2019-04-13T02:40:53.093Z,13.13
2019-04-13T02:43:20.297Z,12.67
2019-04-13T02:45:47.545Z,13.03
2019-04-13T02:48:14.666Z,13.10
2019-04-13T02:50:42.091Z,13.53
2019-04-13T02:53:09.131Z,13.30
2019-04-13T02:55:36.173Z,14.33
2019-04-13T02:58:03.239Z,13.77
2019-04-13T03:00:30.369Z,13.13
2019-04-13T03:02:57.399Z,14.23
2019-04-13T03:05:24.485Z,13.97
2019-04-13T03:07:51.548Z,14.00
2019-04-13T03:10:18.581Z,14.40
2019-04-13T03:12:45.653Z,15.20
2019-04-13T03:15:13.396Z,15.27
2019-04-13T03:18:03.037Z,13.87
2019-04-13T03:20:31.254Z,15.13
2019-04-13T03:22:58.571Z,15.57
2019-04-13T03:25:25.653Z,14.27
2019-04-13T03:27:52.718Z,14.43
2019-04-13T03:30:24.050Z,15.00
2019-04-13T03:32:51.123Z,15.73
2019-04-13T03:35:18.165Z,16.03
2019-04-13T03:37:45.209Z,14.90
2019-04-13T03:40:12.479Z,15.80
2019-04-13T03:42:39.542Z,16.13
2019-04-13T03:45:07.090Z,16.13
2019-04-13T03:47:38.058Z,17.70
2019-04-13T03:50:05.244Z,17.80
2019-04-13T03:52:32.343Z,16.63
2019-04-13T03:54:59.459Z,17.60
2019-04-13T03:57:26.503Z,16.53
2019-04-13T03:59:53.536Z,16.70
2019-04-13T04:02:20.632Z,17.70
2019-04-13T04:04:47.686Z,18.67
2019-04-13T04:07:14.722Z,18.60
2019-04-13T04:09:41.787Z,18.90
2019-04-13T04:12:10.092Z,22.63
2019-04-13T04:14:37.543Z,23.80
2019-04-13T04:17:04.560Z,21.17
2019-04-13T04:19:31.611Z,19.40
2019-04-13T04:21:58.695Z,20.20
2019-04-13T04:24:25.746Z,18.33
2019-04-13T04:26:52.826Z,17.63
2019-04-13T04:29:19.904Z,19.73
2019-04-13T04:31:46.933Z,19.43
2019-04-13T04:34:13.980Z,19.83
2019-04-13T04:36:41.084Z,21.20
2019-04-13T04:39:08.120Z,23.20
2019-04-13T04:41:35.165Z,24.87
2019-04-13T04:44:02.278Z,21.07
2019-04-13T04:46:29.664Z,20.13
2019-04-13T04:48:56.738Z,20.83
2019-04-13T04:51:23.833Z,20.83
2019-04-13T04:53:50.869Z,21.57
2019-04-13T04:56:18.066Z,20.93
2019-04-13T04:58:45.104Z,21.67
2019-04-13T05:01:14.954Z,22.93
2019-04-13T05:03:41.996Z,22.47
2019-04-13T05:06:09.087Z,23.07
2019-04-13T05:08:36.137Z,23.53
2019-04-13T05:11:03.378Z,22.67
2019-04-13T05:13:30.463Z,22.90
2019-04-13T05:15:57.523Z,21.73
2019-04-13T05:18:24.742Z,21.70
2019-04-13T05:20:51.869Z,22.87
2019-04-13T05:23:18.898Z,23.13
2019-04-13T05:25:45.999Z,23.30
2019-04-13T05:28:13.082Z,24.07
2019-04-13T05:30:40.349Z,23.63
2019-04-13T05:33:07.390Z,24.27
2019-04-13T05:35:34.491Z,25.90
2019-04-13T05:38:06.130Z,24.80
2019-04-13T05:40:33.205Z,24.57
2019-04-13T05:43:00.295Z,26.00
2019-04-13T05:45:27.340Z,26.83
2019-04-13T05:47:54.391Z,25.20
2019-04-13T05:50:21.491Z,24.47
2019-04-13T05:52:48.608Z,23.23
2019-04-13T05:55:15.732Z,24.53
2019-04-13T05:57:42.815Z,24.87
2019-04-13T06:00:10.523Z,22.47
2019-04-13T06:02:37.624Z,24.60
2019-04-13T06:05:07.582Z,23.83
2019-04-13T06:07:34.758Z,25.33
2019-04-13T06:10:01.814Z,22.93
2019-04-13T06:12:28.908Z,20.37
2019-04-13T06:14:55.967Z,21.53
2019-04-13T06:17:23.002Z,23.83
2019-04-13T06:19:50.103Z,19.67
2019-04-13T06:22:17.148Z,19.10
2019-04-13T06:24:44.169Z,19.03
2019-04-13T06:27:12.084Z,18.27
2019-04-13T06:29:39.236Z,18.90
2019-04-13T06:32:27.342Z,19.10
2019-04-13T06:35:28.935Z,19.40
2019-04-13T06:37:55.987Z,18.30
2019-04-13T06:40:24.627Z,20.80
2019-04-13T06:42:54.485Z,18.33
2019-04-13T06:45:20.692Z,18.53
2019-04-13T06:47:47.767Z,18.53
2019-04-13T06:50:14.854Z,19.03
2019-04-13T06:52:42.085Z,18.17
2019-04-13T06:55:09.483Z,18.40
2019-04-13T06:57:36.595Z,16.77
2019-04-13T07:00:04.328Z,15.70
2019-04-13T07:02:31.372Z,16.90
2019-04-13T07:04:58.479Z,17.63
2019-04-13T07:07:52.350Z,16.20
2019-04-13T07:10:49.301Z,17.57
2019-04-13T07:13:23.384Z,15.77
2019-04-13T07:15:54.032Z,15.27
2019-04-13T07:18:21.112Z,15.40
2019-04-13T07:20:48.828Z,17.67
2019-04-13T07:23:16.310Z,15.97
2019-04-13T07:25:43.346Z,16.53
2019-04-13T07:28:10.415Z,15.80
2019-04-13T07:30:37.478Z,14.83
2019-04-13T07:33:04.565Z,15.43
2019-04-13T07:35:33.980Z,14.03
2019-04-13T07:38:00.569Z,15.00
2019-04-13T07:40:27.641Z,14.27
2019-04-13T07:42:54.756Z,14.83
2019-04-13T07:45:36.205Z,16.10
2019-04-13T07:48:14.531Z,15.17
2019-04-13T07:50:51.449Z,13.83
2019-04-13T07:53:21.238Z,13.00
2019-04-13T07:55:48.306Z,13.30
2019-04-13T07:58:16.815Z,13.37
2019-04-13T08:00:45.844Z,12.57
2019-04-13T08:03:12.987Z,12.87
2019-04-13T08:05:40.217Z,12.47
2019-04-13T08:08:07.479Z,13.23
2019-04-13T08:10:34.820Z,12.67
2019-04-13T08:13:01.899Z,11.73
2019-04-13T08:15:29.058Z,12.23
2019-04-13T08:17:56.139Z,12.40
2019-04-13T08:20:30.603Z,11.13
2019-04-13T08:22:59.079Z,11.97
2019-04-13T08:25:26.424Z,11.77
2019-04-13T08:27:53.630Z,11.13
2019-04-13T08:30:20.672Z,11.30
2019-04-13T08:32:47.741Z,10.57
2019-04-13T08:35:14.951Z,9.70
2019-04-13T08:37:52.860Z,9.73
2019-04-13T08:40:12.238Z,9.47
2019-04-13T08:42:39.371Z,8.73
2019-04-13T08:45:06.644Z,8.97
2019-04-13T08:47:33.707Z,8.70
2019-04-13T08:50:00.873Z,8.33
2019-04-13T08:52:27.961Z,8.17
2019-04-13T08:54:55.016Z,8.07
2019-04-13T08:57:22.100Z,8.80
2019-04-13T08:59:49.202Z,8.50
2019-04-13T09:02:16.358Z,8.40
2019-04-13T09:04:43.450Z,8.30
2019-04-13T09:07:14.938Z,8.37
2019-04-13T09:09:41.332Z,8.83
2019-04-13T09:12:10.770Z,8.90
2019-04-13T09:14:38.176Z,8.20
2019-04-13T09:17:06.585Z,6.83
2019-04-13T09:19:59.484Z,7.60
2019-04-13T09:22:26.964Z,6.47
2019-04-13T09:24:54.131Z,7.40
2019-04-13T09:27:21.223Z,6.90
2019-04-13T09:29:48.287Z,7.17
2019-04-13T09:32:15.359Z,7.20
2019-04-13T09:34:42.706Z,5.57
2019-04-13T09:37:09.861Z,6.90
2019-04-13T09:39:36.967Z,5.90
2019-04-13T09:42:04.095Z,6.40
2019-04-13T09:44:32.343Z,6.70
2019-04-13T09:47:08.804Z,6.70
2019-04-13T09:49:36.014Z,6.43
2019-04-13T09:52:03.088Z,6.17
2019-04-13T09:54:30.283Z,6.20
2019-04-13T09:56:57.377Z,6.30
2019-04-13T09:59:24.462Z,6.20
2019-04-13T10:01:51.569Z,6.57
2019-04-13T10:04:18.696Z,5.40
2019-04-13T10:06:45.792Z,6.33
2019-04-13T10:09:12.951Z,6.03
2019-04-13T10:12:02.379Z,6.40
2019-04-13T10:14:50.922Z,6.70
2019-04-13T10:17:34.975Z,6.80
2019-04-13T10:20:02.078Z,6.10
2019-04-13T10:22:29.345Z,5.70
2019-04-13T10:24:56.417Z,6.87
2019-04-13T10:27:23.496Z,7.07
2019-04-13T10:29:50.577Z,6.60
2019-04-13T10:32:21.367Z,7.00
2019-04-13T10:34:48.477Z,6.23
2019-04-13T10:37:21.635Z,5.77
2019-04-13T10:39:48.693Z,7.10
2019-04-13T10:42:15.795Z,7.13
2019-04-13T10:44:46.655Z,6.30
2019-04-13T10:47:40.280Z,6.30
2019-04-13T10:50:34.247Z,6.63
2019-04-13T10:53:01.342Z,5.70
2019-04-13T10:55:28.586Z,6.17
2019-04-13T10:57:56.358Z,6.43
2019-04-13T11:00:23.462Z,6.50
2019-04-13T11:02:50.559Z,7.20
2019-04-13T11:05:17.723Z,7.13
2019-04-13T11:07:45.074Z,6.83
2019-04-13T11:10:12.129Z,5.83
2019-04-13T11:12:39.225Z,6.27
2019-04-13T11:15:06.687Z,5.73
2019-04-13T11:17:33.767Z,6.00
2019-04-13T11:20:01.034Z,5.30
2019-04-13T11:22:28.082Z,5.50
2019-04-13T11:24:55.181Z,6.20
2019-04-13T11:27:22.292Z,5.40
2019-04-13T11:29:49.380Z,5.90
2019-04-13T11:32:16.426Z,5.67
2019-04-13T11:34:43.575Z,5.83
2019-04-13T11:37:10.696Z,4.93
2019-04-13T11:39:41.511Z,4.90
2019-04-13T11:42:29.459Z,4.80
2019-04-13T11:45:14.695Z,5.17
2019-04-13T11:47:59.433Z,5.40
2019-04-13T11:50:35.501Z,6.93
2019-04-13T11:53:02.595Z,6.40
2019-04-13T11:55:33.888Z,5.93
2019-04-13T11:57:58.679Z,5.60
2019-04-13T12:00:50.643Z,6.83
2019-04-13T12:03:35.775Z,6.37
2019-04-13T12:06:06.357Z,6.87
2019-04-13T12:08:42.591Z,5.87
2019-04-13T12:11:40.099Z,5.40
2019-04-13T12:14:23.232Z,5.10
2019-04-13T12:17:19.605Z,5.87
2019-04-13T12:19:50.980Z,4.90
2019-04-13T12:22:23.497Z,5.17
2019-04-13T12:25:03.201Z,5.00
2019-04-13T12:27:31.299Z,5.37
2019-04-13T12:29:59.664Z,5.80
2019-04-13T12:32:29.289Z,6.00
2019-04-13T12:34:57.546Z,6.20
2019-04-13T12:37:24.598Z,5.70
2019-04-13T12:40:02.924Z,6.37
2019-04-13T12:42:24.926Z,5.30
2019-04-13T12:44:51.960Z,7.20
2019-04-13T12:47:20.088Z,7.23
2019-04-13T12:49:47.214Z,5.63
2019-04-13T12:52:14.357Z,6.47
2019-04-13T12:54:41.370Z,6.03
2019-04-13T12:57:08.499Z,5.20
2019-04-13T12:59:36.641Z,5.57
2019-04-13T13:02:13.102Z,5.30
2019-04-13T13:04:58.384Z,5.73
2019-04-13T13:07:25.819Z,5.03
2019-04-13T13:09:55.726Z,4.93
2019-04-13T13:12:22.798Z,5.67
2019-04-13T13:14:49.891Z,5.70
2019-04-13T13:17:18.387Z,6.37
2019-04-13T13:19:46.244Z,6.17
2019-04-13T13:22:15.729Z,5.80
2019-04-13T13:24:43.297Z,5.67
2019-04-13T13:27:11.912Z,5.27
2019-04-13T13:29:38.966Z,5.20
2019-04-13T13:32:06.224Z,4.83
2019-04-13T13:34:33.293Z,4.70
2019-04-13T13:37:00.360Z,5.37
2019-04-13T13:39:27.525Z,4.77
2019-04-13T13:41:54.595Z,4.13
2019-04-13T13:44:21.671Z,4.50
2019-04-13T13:46:51.254Z,5.00
2019-04-13T13:49:17.755Z,3.97
2019-04-13T13:51:55.527Z,4.33
2019-04-13T13:54:14.351Z,4.07
2019-04-13T13:56:41.549Z,4.60
2019-04-13T13:59:08.605Z,4.67
2019-04-13T14:01:48.427Z,4.27
2019-04-13T14:04:15.520Z,4.70
2019-04-13T14:06:42.600Z,5.17
2019-04-13T14:09:10.330Z,5.40
2019-04-13T14:11:37.598Z,5.30
2019-04-13T14:14:04.664Z,4.60
2019-04-13T14:16:31.739Z,4.57
2019-04-13T14:18:58.793Z,4.27
2019-04-13T14:21:25.896Z,3.80
2019-04-13T14:23:53.020Z,3.67
2019-04-13T14:26:20.090Z,3.50
2019-04-13T14:28:47.250Z,4.13
2019-04-13T14:31:14.378Z,3.63
2019-04-13T14:33:41.478Z,4.67
2019-04-13T14:36:08.546Z,4.03
2019-04-13T14:38:35.619Z,4.17
2019-04-13T14:41:02.938Z,4.77
2019-04-13T14:43:41.964Z,4.87
2019-04-13T14:46:14.346Z,5.00
2019-04-13T14:48:41.408Z,4.70
2019-04-13T14:51:08.535Z,4.83
2019-04-13T14:53:35.600Z,4.67
2019-04-13T14:56:05.054Z,4.77
2019-04-13T14:58:31.799Z,4.90
2019-04-13T15:00:59.013Z,5.10
2019-04-13T15:03:26.144Z,5.17
2019-04-13T15:05:53.376Z,5.20
2019-04-13T15:08:20.448Z,4.80
2019-04-13T15:10:51.950Z,4.80
2019-04-13T15:13:19.067Z,4.90
2019-04-13T15:15:47.636Z,9.80
2019-04-13T15:18:21.037Z,4.37
2019-04-13T15:20:50.658Z,4.20
2019-04-13T15:23:17.722Z,5.10
2019-04-13T15:25:50.904Z,4.50
2019-04-13T15:28:19.120Z,6.47
2019-04-13T15:30:48.363Z,6.40
2019-04-13T15:33:18.282Z,6.60
2019-04-13T15:35:48.330Z,6.77
2019-04-13T15:38:18.145Z,8.00
2019-04-13T15:40:42.897Z,6.93
2019-04-13T15:43:18.772Z,6.70
2019-04-13T15:45:43.882Z,7.53
2019-04-13T15:48:07.915Z,7.50
2019-04-13T15:50:34.958Z,6.50
2019-04-13T15:53:02.015Z,6.27
2019-04-13T15:55:29.467Z,6.17
2019-04-13T15:57:57.679Z,6.80
2019-04-13T16:00:25.291Z,7.30
2019-04-13T16:02:52.379Z,7.60
2019-04-13T16:05:19.863Z,6.10
2019-04-13T16:07:46.963Z,6.60
2019-04-13T16:10:37.584Z,6.43
2019-04-13T16:13:06.860Z,6.50
2019-04-13T16:15:36.078Z,5.83
2019-04-13T16:18:04.593Z,5.87
2019-04-13T16:20:31.817Z,5.53
2019-04-13T16:22:58.902Z,4.40
2019-04-13T16:25:28.844Z,4.93
2019-04-13T16:28:04.735Z,5.40
2019-04-13T16:31:01.106Z,5.17
2019-04-13T16:33:54.193Z,5.00
2019-04-13T16:36:25.353Z,5.13
2019-04-13T16:39:01.790Z,5.80
2019-04-13T16:41:21.640Z,6.00
2019-04-13T16:43:53.885Z,5.07
2019-04-13T16:46:29.037Z,5.80
2019-04-13T16:49:19.560Z,6.03
2019-04-13T16:52:07.066Z,6.63
2019-04-13T16:54:54.553Z,5.90
2019-04-13T16:57:35.707Z,6.00
2019-04-13T17:00:22.212Z,5.63
2019-04-13T17:03:11.917Z,5.80
2019-04-13T17:05:39.833Z,5.87
2019-04-13T17:08:07.712Z,6.10
2019-04-13T17:10:35.715Z,5.93
2019-04-13T17:13:09.686Z,5.97
2019-04-13T17:15:37.704Z,6.23
2019-04-13T17:18:10.015Z,6.57
2019-04-13T17:20:49.914Z,7.03
2019-04-13T17:23:29.400Z,7.83
2019-04-13T17:26:02.970Z,6.87
2019-04-13T17:28:48.934Z,8.20
2019-04-13T17:31:51.394Z,7.10
2019-04-13T17:34:27.898Z,7.00
2019-04-13T17:36:56.370Z,8.13
2019-04-13T17:39:23.665Z,7.43
2019-04-13T17:42:10.403Z,9.47
2019-04-13T17:44:38.136Z,9.40
2019-04-13T17:47:31.222Z,9.60
2019-04-13T17:50:26.769Z,11.10
2019-04-13T17:53:03.593Z,10.20
2019-04-13T17:55:39.821Z,10.50
2019-04-13T17:58:25.364Z,11.63
2019-04-13T18:01:18.892Z,12.50
2019-04-13T18:04:19.021Z,10.87
2019-04-13T18:07:07.265Z,10.80
2019-04-13T18:10:15.191Z,11.50
2019-04-13T18:13:07.785Z,10.67
2019-04-13T18:15:57.747Z,10.07
2019-04-13T18:18:37.531Z,11.30
2019-04-13T18:21:05.609Z,12.10
2019-04-13T18:23:33.922Z,12.43
2019-04-13T18:26:02.554Z,11.53
2019-04-13T18:28:29.800Z,12.23
2019-04-13T18:30:58.008Z,12.17
2019-04-13T18:33:26.144Z,12.83
2019-04-13T18:35:56.447Z,16.93
2019-04-13T18:38:41.962Z,12.23
2019-04-13T18:41:10.186Z,16.73
2019-04-13T18:43:37.318Z,12.33
2019-04-13T18:46:05.426Z,12.30
2019-04-13T18:48:33.851Z,11.57
2019-04-13T18:51:02.231Z,13.67
2019-04-13T18:53:29.903Z,13.20
2019-04-13T18:55:58.142Z,12.50
2019-04-13T18:58:25.245Z,11.60
2019-04-13T19:00:52.956Z,12.97
2019-04-13T19:03:20.042Z,11.67
2019-04-13T19:05:47.166Z,12.03
2019-04-13T19:08:14.516Z,13.27
2019-04-13T19:10:41.742Z,11.70
2019-04-13T19:13:08.914Z,13.27
2019-04-13T19:15:35.983Z,12.43
2019-04-13T19:18:03.241Z,12.03
2019-04-13T19:20:30.357Z,12.30
2019-04-13T19:22:57.387Z,12.07
2019-04-13T19:25:24.473Z,13.33
2019-04-13T19:27:51.597Z,12.47
2019-04-13T19:30:18.713Z,12.40
2019-04-13T19:32:45.947Z,12.93
2019-04-13T19:35:13.069Z,13.83
2019-04-13T19:37:40.199Z,12.17
2019-04-13T19:40:07.381Z,11.83
2019-04-13T19:42:34.456Z,12.33
2019-04-13T19:45:01.567Z,28.07
2019-04-13T19:47:28.703Z,25.37
2019-04-13T19:49:55.908Z,48.37
2019-04-13T19:52:37.458Z,20.47
2019-04-13T19:55:04.898Z,16.80
2019-04-13T19:57:32.039Z,16.83
2019-04-13T19:59:59.517Z,12.70
2019-04-13T20:02:27.230Z,14.80
2019-04-13T20:04:54.290Z,14.17
2019-04-13T20:07:22.574Z,34.17
2019-04-13T20:09:49.787Z,21.03
2019-04-13T20:12:16.876Z,69.77
2019-04-13T20:14:45.818Z,16.10
2019-04-13T20:17:12.941Z,15.43
2019-04-13T20:19:40.018Z,13.20
2019-04-13T20:22:07.119Z,14.47
2019-04-13T20:24:34.715Z,18.13
2019-04-13T20:27:02.305Z,14.70
2019-04-13T20:29:29.655Z,13.60
2019-04-13T20:31:57.070Z,13.03
2019-04-13T20:34:24.863Z,14.27
2019-04-13T20:36:52.799Z,13.33
2019-04-13T20:39:22.269Z,14.97
2019-04-13T20:41:57.402Z,15.57
2019-04-13T20:44:19.512Z,14.97
2019-04-13T20:46:47.445Z,16.73
2019-04-13T20:49:15.047Z,15.23
2019-04-13T20:51:43.050Z,15.43
2019-04-13T20:54:11.531Z,15.93
2019-04-13T20:56:38.727Z,15.30
2019-04-13T20:59:06.207Z,16.27
2019-04-13T21:01:34.355Z,15.43
2019-04-13T21:04:02.281Z,17.13
2019-04-13T21:06:30.472Z,16.10
2019-04-13T21:08:59.225Z,16.87
2019-04-13T21:11:26.597Z,17.33
2019-04-13T21:14:04.947Z,18.47
2019-04-13T21:16:23.571Z,17.60
2019-04-13T21:18:51.500Z,17.53
2019-04-13T21:21:19.344Z,17.63
2019-04-13T21:23:47.351Z,18.30
2019-04-13T21:26:15.216Z,17.07
2019-04-13T21:28:42.960Z,16.90
2019-04-13T21:31:10.741Z,18.73
2019-04-13T21:33:38.615Z,17.87
2019-04-13T21:36:06.678Z,18.07
2019-04-13T21:38:34.535Z,17.90
2019-04-13T21:41:02.205Z,19.80
2019-04-13T21:43:32.578Z,18.17
2019-04-13T21:45:58.406Z,19.67
2019-04-13T21:48:26.266Z,20.23
2019-04-13T21:51:11.875Z,21.17
2019-04-13T21:53:46.440Z,21.37
2019-04-13T21:56:14.401Z,20.13
2019-04-13T21:58:42.356Z,20.80
2019-04-13T22:01:25.670Z,18.90
2019-04-13T22:03:53.376Z,22.50
2019-04-13T22:06:21.310Z,23.30
2019-04-13T22:08:49.158Z,20.30
2019-04-13T22:11:16.997Z,23.90
2019-04-13T22:13:44.640Z,22.70
2019-04-13T22:16:12.248Z,23.03
2019-04-13T22:18:39.331Z,24.67
2019-04-13T22:21:06.903Z,21.83
2019-04-13T22:23:34.639Z,23.57
2019-04-13T22:26:02.508Z,23.40
2019-04-13T22:28:36.557Z,24.13
2019-04-13T22:31:33.082Z,25.53
2019-04-13T22:34:01.248Z,22.17
2019-04-13T22:36:31.154Z,23.50
2019-04-13T22:38:58.761Z,25.10
2019-04-13T22:41:26.692Z,27.33
2019-04-13T22:43:54.448Z,25.13
2019-04-13T22:46:21.640Z,25.60
2019-04-13T22:48:58.161Z,24.77
2019-04-13T22:51:44.912Z,25.73
2019-04-13T22:54:34.363Z,24.77
2019-04-13T22:57:19.534Z,25.60
2019-04-13T22:59:46.635Z,24.77
2019-04-13T23:02:25.911Z,24.10
2019-04-13T23:04:53.694Z,27.07
2019-04-13T23:07:23.081Z,25.67
2019-04-13T23:09:49.931Z,23.37
2019-04-13T23:12:18.016Z,25.60
2019-04-13T23:14:56.958Z,28.50
2019-04-13T23:17:14.116Z,31.13
2019-04-13T23:19:41.436Z,29.70
2019-04-13T23:22:08.559Z,28.33
2019-04-13T23:24:36.413Z,27.13
2019-04-13T23:27:03.589Z,30.37
2019-04-13T23:29:30.664Z,26.83
2019-04-13T23:31:58.675Z,29.47
2019-04-13T23:34:26.824Z,31.23
2019-04-13T23:37:04.027Z,30.60
2019-04-13T23:39:32.192Z,29.53
2019-04-13T23:42:00.526Z,34.17
2019-04-13T23:44:28.851Z,41.83
2019-04-13T23:46:56.875Z,41.23
2019-04-13T23:49:25.199Z,33.67
2019-04-13T23:51:53.578Z,38.83
2019-04-13T23:54:21.724Z,57.23
2019-04-13T23:57:07.422Z,35.63
2019-04-13T23:59:40.059Z,29.20
